sensor_id;sensor_type;location;lat;lon;timestamp;P1;durP1;ratioP1;P2;durP2;ratioP2
38034;SDS011;23841;48.524;1.342;2022-08-21T00:01:43;4.40;;;1.42;;
38034;SDS011;23841;48.524;1.342;2022-08-21T00:04:09;3.28;;;1.30;;
38034;SDS011;23841;48.524;1.342;2022-08-21T00:06:35;5.32;;;1.75;;
38034;SDS011;23841;48.524;1.342;2022-08-21T00:09:03;3.40;;;1.00;;
38034;SDS011;23841;48.524;1.342;2022-08-21T00:11:31;4.05;;;1.48;;
38034;SDS011;23841;48.524;1.342;2022-08-21T00:13:57;2.33;;;1.00;;
38034;SDS011;23841;48.524;1.342;2022-08-21T00:16:22;5.05;;;1.83;;
38034;SDS011;23841;48.524;1.342;2022-08-21T00:18:48;2.50;;;0.90;;
38034;SDS011;23841;48.524;1.342;2022-08-21T00:21:14;5.35;;;1.45;;
38034;SDS011;23841;48.524;1.342;2022-08-21T00:23:40;3.45;;;1.20;;
38034;SDS011;23841;48.524;1.342;2022-08-21T00:26:06;3.70;;;1.23;;
38034;SDS011;23841;48.524;1.342;2022-08-21T00:28:32;3.58;;;1.27;;
38034;SDS011;23841;48.524;1.342;2022-08-21T00:30:58;3.17;;;1.63;;
38034;SDS011;23841;48.524;1.342;2022-08-21T00:33:25;3.72;;;1.27;;
38034;SDS011;23841;48.524;1.342;2022-08-21T00:35:51;8.30;;;1.30;;
38034;SDS011;23841;48.524;1.342;2022-08-21T00:38:17;3.45;;;1.45;;
38034;SDS011;23841;48.524;1.342;2022-08-21T00:40:47;4.35;;;1.48;;
38034;SDS011;23841;48.524;1.342;2022-08-21T00:43:19;4.93;;;1.33;;
38034;SDS011;23841;48.524;1.342;2022-08-21T00:45:48;3.17;;;1.10;;
38034;SDS011;23841;48.524;1.342;2022-08-21T00:48:14;7.03;;;1.60;;
38034;SDS011;23841;48.524;1.342;2022-08-21T00:50:43;5.93;;;1.42;;
38034;SDS011;23841;48.524;1.342;2022-08-21T00:53:13;3.63;;;1.35;;
38034;SDS011;23841;48.524;1.342;2022-08-21T00:55:39;3.42;;;1.30;;
38034;SDS011;23841;48.524;1.342;2022-08-21T00:58:06;3.60;;;1.40;;
38034;SDS011;23841;48.524;1.342;2022-08-21T01:00:35;6.10;;;1.50;;
38034;SDS011;23841;48.524;1.342;2022-08-21T01:03:05;3.83;;;1.40;;
38034;SDS011;23841;48.524;1.342;2022-08-21T01:05:33;5.97;;;1.58;;
38034;SDS011;23841;48.524;1.342;2022-08-21T01:07:59;2.80;;;1.00;;
38034;SDS011;23841;48.524;1.342;2022-08-21T01:10:25;5.28;;;1.70;;
38034;SDS011;23841;48.524;1.342;2022-08-21T01:12:51;4.53;;;1.25;;
38034;SDS011;23841;48.524;1.342;2022-08-21T01:15:17;6.00;;;1.35;;
38034;SDS011;23841;48.524;1.342;2022-08-21T01:17:44;3.30;;;1.13;;
38034;SDS011;23841;48.524;1.342;2022-08-21T01:20:10;3.80;;;1.20;;
38034;SDS011;23841;48.524;1.342;2022-08-21T01:22:36;4.53;;;1.30;;
38034;SDS011;23841;48.524;1.342;2022-08-21T01:25:03;4.40;;;1.42;;
38034;SDS011;23841;48.524;1.342;2022-08-21T01:27:30;5.25;;;1.77;;
38034;SDS011;23841;48.524;1.342;2022-08-21T01:29:57;3.58;;;1.30;;
38034;SDS011;23841;48.524;1.342;2022-08-21T01:32:39;3.22;;;1.08;;
38034;SDS011;23841;48.524;1.342;2022-08-21T01:35:05;5.90;;;1.38;;
38034;SDS011;23841;48.524;1.342;2022-08-21T01:37:32;1.85;;;1.00;;
38034;SDS011;23841;48.524;1.342;2022-08-21T01:39:57;4.60;;;1.50;;
38034;SDS011;23841;48.524;1.342;2022-08-21T01:42:23;5.88;;;1.52;;
38034;SDS011;23841;48.524;1.342;2022-08-21T01:44:50;4.25;;;1.33;;
38034;SDS011;23841;48.524;1.342;2022-08-21T01:47:16;3.70;;;1.30;;
38034;SDS011;23841;48.524;1.342;2022-08-21T01:49:43;3.67;;;1.35;;
38034;SDS011;23841;48.524;1.342;2022-08-21T01:52:09;3.53;;;1.25;;
38034;SDS011;23841;48.524;1.342;2022-08-21T01:54:36;6.40;;;1.38;;
38034;SDS011;23841;48.524;1.342;2022-08-21T01:57:02;5.57;;;1.35;;
38034;SDS011;23841;48.524;1.342;2022-08-21T01:59:30;6.25;;;1.55;;
38034;SDS011;23841;48.524;1.342;2022-08-21T02:01:56;4.47;;;1.42;;
38034;SDS011;23841;48.524;1.342;2022-08-21T02:04:22;6.07;;;1.48;;
38034;SDS011;23841;48.524;1.342;2022-08-21T02:06:48;4.15;;;1.00;;
38034;SDS011;23841;48.524;1.342;2022-08-21T02:09:14;3.55;;;1.25;;
38034;SDS011;23841;48.524;1.342;2022-08-21T02:11:40;3.58;;;1.30;;
38034;SDS011;23841;48.524;1.342;2022-08-21T02:14:15;2.67;;;1.40;;
38034;SDS011;23841;48.524;1.342;2022-08-21T02:16:41;3.40;;;1.30;;
38034;SDS011;23841;48.524;1.342;2022-08-21T02:19:08;3.45;;;1.10;;
38034;SDS011;23841;48.524;1.342;2022-08-21T02:21:34;3.40;;;1.08;;
38034;SDS011;23841;48.524;1.342;2022-08-21T02:23:59;4.50;;;1.48;;
38034;SDS011;23841;48.524;1.342;2022-08-21T02:26:25;3.25;;;1.30;;
38034;SDS011;23841;48.524;1.342;2022-08-21T02:28:51;5.22;;;1.20;;
38034;SDS011;23841;48.524;1.342;2022-08-21T02:31:16;4.72;;;0.93;;
38034;SDS011;23841;48.524;1.342;2022-08-21T02:33:42;3.60;;;1.00;;
38034;SDS011;23841;48.524;1.342;2022-08-21T02:36:08;4.93;;;1.40;;
38034;SDS011;23841;48.524;1.342;2022-08-21T02:38:35;4.68;;;1.17;;
38034;SDS011;23841;48.524;1.342;2022-08-21T02:41:05;6.53;;;2.05;;
38034;SDS011;23841;48.524;1.342;2022-08-21T02:43:33;4.13;;;1.85;;
38034;SDS011;23841;48.524;1.342;2022-08-21T02:45:58;4.72;;;1.60;;
38034;SDS011;23841;48.524;1.342;2022-08-21T02:48:25;6.15;;;1.50;;
38034;SDS011;23841;48.524;1.342;2022-08-21T02:50:57;4.63;;;1.30;;
38034;SDS011;23841;48.524;1.342;2022-08-21T02:53:26;6.22;;;1.50;;
38034;SDS011;23841;48.524;1.342;2022-08-21T02:55:52;5.57;;;1.70;;
38034;SDS011;23841;48.524;1.342;2022-08-21T02:58:19;4.47;;;1.20;;
38034;SDS011;23841;48.524;1.342;2022-08-21T03:00:48;4.93;;;1.67;;
38034;SDS011;23841;48.524;1.342;2022-08-21T03:03:14;4.55;;;1.50;;
38034;SDS011;23841;48.524;1.342;2022-08-21T03:05:40;4.28;;;1.58;;
38034;SDS011;23841;48.524;1.342;2022-08-21T03:08:07;5.72;;;2.13;;
38034;SDS011;23841;48.524;1.342;2022-08-21T03:10:35;6.00;;;1.67;;
38034;SDS011;23841;48.524;1.342;2022-08-21T03:13:02;3.25;;;1.30;;
38034;SDS011;23841;48.524;1.342;2022-08-21T03:15:28;3.58;;;1.60;;
38034;SDS011;23841;48.524;1.342;2022-08-21T03:17:54;3.33;;;1.50;;
38034;SDS011;23841;48.524;1.342;2022-08-21T03:20:20;6.07;;;1.75;;
38034;SDS011;23841;48.524;1.342;2022-08-21T03:22:48;5.15;;;1.60;;
38034;SDS011;23841;48.524;1.342;2022-08-21T03:25:15;4.30;;;1.67;;
38034;SDS011;23841;48.524;1.342;2022-08-21T03:27:41;3.70;;;1.48;;
38034;SDS011;23841;48.524;1.342;2022-08-21T03:30:07;3.88;;;1.40;;
38034;SDS011;23841;48.524;1.342;2022-08-21T03:32:33;2.70;;;1.20;;
38034;SDS011;23841;48.524;1.342;2022-08-21T03:35:00;4.05;;;1.45;;
38034;SDS011;23841;48.524;1.342;2022-08-21T03:37:26;4.38;;;1.33;;
38034;SDS011;23841;48.524;1.342;2022-08-21T03:39:52;4.30;;;1.70;;
38034;SDS011;23841;48.524;1.342;2022-08-21T03:42:18;3.67;;;1.65;;
38034;SDS011;23841;48.524;1.342;2022-08-21T03:44:43;4.35;;;1.55;;
38034;SDS011;23841;48.524;1.342;2022-08-21T03:47:09;7.03;;;1.77;;
38034;SDS011;23841;48.524;1.342;2022-08-21T03:49:34;4.40;;;1.83;;
38034;SDS011;23841;48.524;1.342;2022-08-21T03:52:00;4.78;;;1.33;;
38034;SDS011;23841;48.524;1.342;2022-08-21T03:54:26;4.28;;;1.85;;
38034;SDS011;23841;48.524;1.342;2022-08-21T03:56:52;5.38;;;1.73;;
38034;SDS011;23841;48.524;1.342;2022-08-21T03:59:17;4.78;;;1.67;;
38034;SDS011;23841;48.524;1.342;2022-08-21T04:01:59;3.92;;;1.40;;
38034;SDS011;23841;48.524;1.342;2022-08-21T04:04:26;7.07;;;2.03;;
38034;SDS011;23841;48.524;1.342;2022-08-21T04:06:53;2.42;;;1.48;;
38034;SDS011;23841;48.524;1.342;2022-08-21T04:09:20;4.70;;;1.35;;
38034;SDS011;23841;48.524;1.342;2022-08-21T04:11:45;4.63;;;1.45;;
38034;SDS011;23841;48.524;1.342;2022-08-21T04:14:12;2.88;;;1.33;;
38034;SDS011;23841;48.524;1.342;2022-08-21T04:16:39;4.47;;;1.50;;
38034;SDS011;23841;48.524;1.342;2022-08-21T04:19:04;4.28;;;1.50;;
38034;SDS011;23841;48.524;1.342;2022-08-21T04:21:30;4.15;;;2.20;;
38034;SDS011;23841;48.524;1.342;2022-08-21T04:23:56;4.07;;;1.63;;
38034;SDS011;23841;48.524;1.342;2022-08-21T04:26:23;4.68;;;1.77;;
38034;SDS011;23841;48.524;1.342;2022-08-21T04:28:49;3.13;;;1.70;;
38034;SDS011;23841;48.524;1.342;2022-08-21T04:31:14;4.43;;;1.90;;
38034;SDS011;23841;48.524;1.342;2022-08-21T04:33:40;3.38;;;1.40;;
38034;SDS011;23841;48.524;1.342;2022-08-21T04:36:05;5.55;;;1.40;;
38034;SDS011;23841;48.524;1.342;2022-08-21T04:38:31;3.75;;;1.40;;
38034;SDS011;23841;48.524;1.342;2022-08-21T04:40:57;3.30;;;1.42;;
38034;SDS011;23841;48.524;1.342;2022-08-21T04:43:23;6.35;;;1.98;;
38034;SDS011;23841;48.524;1.342;2022-08-21T04:45:49;3.97;;;1.95;;
38034;SDS011;23841;48.524;1.342;2022-08-21T04:48:16;5.40;;;1.60;;
38034;SDS011;23841;48.524;1.342;2022-08-21T04:53:47;6.15;;;2.40;;
38034;SDS011;23841;48.524;1.342;2022-08-21T04:56:20;6.57;;;1.83;;
38034;SDS011;23841;48.524;1.342;2022-08-21T04:58:50;4.88;;;1.75;;
38034;SDS011;23841;48.524;1.342;2022-08-21T05:01:19;3.67;;;1.60;;
38034;SDS011;23841;48.524;1.342;2022-08-21T05:03:47;3.50;;;1.38;;
38034;SDS011;23841;48.524;1.342;2022-08-21T05:06:15;3.65;;;1.45;;
38034;SDS011;23841;48.524;1.342;2022-08-21T05:08:42;2.90;;;1.50;;
38034;SDS011;23841;48.524;1.342;2022-08-21T05:11:11;4.20;;;1.40;;
38034;SDS011;23841;48.524;1.342;2022-08-21T05:13:37;3.63;;;1.20;;
38034;SDS011;23841;48.524;1.342;2022-08-21T05:16:02;5.55;;;1.90;;
38034;SDS011;23841;48.524;1.342;2022-08-21T05:18:28;4.32;;;1.55;;
38034;SDS011;23841;48.524;1.342;2022-08-21T05:20:53;3.95;;;1.58;;
38034;SDS011;23841;48.524;1.342;2022-08-21T05:23:19;3.90;;;1.90;;
38034;SDS011;23841;48.524;1.342;2022-08-21T05:25:44;6.20;;;1.50;;
38034;SDS011;23841;48.524;1.342;2022-08-21T05:28:10;3.80;;;1.25;;
38034;SDS011;23841;48.524;1.342;2022-08-21T05:30:36;4.13;;;1.50;;
38034;SDS011;23841;48.524;1.342;2022-08-21T05:33:03;5.60;;;1.65;;
38034;SDS011;23841;48.524;1.342;2022-08-21T05:35:30;4.07;;;1.40;;
38034;SDS011;23841;48.524;1.342;2022-08-21T05:37:57;4.32;;;1.38;;
38034;SDS011;23841;48.524;1.342;2022-08-21T05:40:23;3.25;;;1.73;;
38034;SDS011;23841;48.524;1.342;2022-08-21T05:42:50;6.72;;;1.70;;
38034;SDS011;23841;48.524;1.342;2022-08-21T05:45:17;5.32;;;1.65;;
38034;SDS011;23841;48.524;1.342;2022-08-21T05:47:42;4.05;;;1.33;;
38034;SDS011;23841;48.524;1.342;2022-08-21T05:50:08;6.53;;;1.73;;
38034;SDS011;23841;48.524;1.342;2022-08-21T05:52:34;4.18;;;2.10;;
38034;SDS011;23841;48.524;1.342;2022-08-21T05:54:59;4.18;;;1.75;;
38034;SDS011;23841;48.524;1.342;2022-08-21T05:57:25;4.57;;;1.52;;
38034;SDS011;23841;48.524;1.342;2022-08-21T05:59:51;7.10;;;1.73;;
38034;SDS011;23841;48.524;1.342;2022-08-21T06:02:18;5.38;;;1.73;;
38034;SDS011;23841;48.524;1.342;2022-08-21T06:04:44;7.32;;;2.33;;
38034;SDS011;23841;48.524;1.342;2022-08-21T06:07:09;8.55;;;1.75;;
38034;SDS011;23841;48.524;1.342;2022-08-21T06:09:36;5.10;;;2.10;;
38034;SDS011;23841;48.524;1.342;2022-08-21T06:12:06;4.93;;;1.60;;
38034;SDS011;23841;48.524;1.342;2022-08-21T06:14:33;5.35;;;1.98;;
38034;SDS011;23841;48.524;1.342;2022-08-21T06:17:03;4.53;;;1.60;;
38034;SDS011;23841;48.524;1.342;2022-08-21T06:19:29;4.38;;;1.42;;
38034;SDS011;23841;48.524;1.342;2022-08-21T06:21:55;4.88;;;1.65;;
38034;SDS011;23841;48.524;1.342;2022-08-21T06:24:20;5.80;;;2.13;;
38034;SDS011;23841;48.524;1.342;2022-08-21T06:26:46;4.20;;;1.35;;
38034;SDS011;23841;48.524;1.342;2022-08-21T06:29:12;3.78;;;1.50;;
38034;SDS011;23841;48.524;1.342;2022-08-21T06:31:41;3.00;;;1.58;;
38034;SDS011;23841;48.524;1.342;2022-08-21T06:34:06;11.35;;;1.95;;
38034;SDS011;23841;48.524;1.342;2022-08-21T06:36:32;6.10;;;1.35;;
38034;SDS011;23841;48.524;1.342;2022-08-21T06:38:57;5.82;;;1.67;;
38034;SDS011;23841;48.524;1.342;2022-08-21T06:41:23;9.98;;;1.95;;
38034;SDS011;23841;48.524;1.342;2022-08-21T06:43:48;6.10;;;1.50;;
38034;SDS011;23841;48.524;1.342;2022-08-21T06:46:13;5.43;;;1.45;;
38034;SDS011;23841;48.524;1.342;2022-08-21T06:48:39;6.07;;;1.92;;
38034;SDS011;23841;48.524;1.342;2022-08-21T06:51:05;5.25;;;1.80;;
38034;SDS011;23841;48.524;1.342;2022-08-21T06:53:30;5.47;;;1.75;;
38034;SDS011;23841;48.524;1.342;2022-08-21T06:55:56;6.85;;;2.13;;
38034;SDS011;23841;48.524;1.342;2022-08-21T06:58:21;4.30;;;1.67;;
38034;SDS011;23841;48.524;1.342;2022-08-21T07:00:48;4.53;;;1.90;;
38034;SDS011;23841;48.524;1.342;2022-08-21T07:05:49;7.22;;;1.83;;
38034;SDS011;23841;48.524;1.342;2022-08-21T07:08:16;4.78;;;1.77;;
38034;SDS011;23841;48.524;1.342;2022-08-21T07:10:48;5.95;;;1.77;;
38034;SDS011;23841;48.524;1.342;2022-08-21T07:13:14;5.45;;;2.20;;
38034;SDS011;23841;48.524;1.342;2022-08-21T07:15:40;7.38;;;1.98;;
38034;SDS011;23841;48.524;1.342;2022-08-21T07:18:07;6.97;;;1.95;;
38034;SDS011;23841;48.524;1.342;2022-08-21T07:20:33;4.93;;;1.80;;
38034;SDS011;23841;48.524;1.342;2022-08-21T07:23:01;5.05;;;1.70;;
38034;SDS011;23841;48.524;1.342;2022-08-21T07:25:31;4.57;;;1.50;;
38034;SDS011;23841;48.524;1.342;2022-08-21T07:27:58;5.22;;;1.85;;
38034;SDS011;23841;48.524;1.342;2022-08-21T07:30:24;4.97;;;2.08;;
38034;SDS011;23841;48.524;1.342;2022-08-21T07:32:49;3.50;;;1.42;;
38034;SDS011;23841;48.524;1.342;2022-08-21T07:35:16;5.85;;;2.40;;
38034;SDS011;23841;48.524;1.342;2022-08-21T07:37:42;4.57;;;1.58;;
38034;SDS011;23841;48.524;1.342;2022-08-21T07:40:08;6.80;;;1.60;;
38034;SDS011;23841;48.524;1.342;2022-08-21T07:42:33;4.93;;;1.65;;
38034;SDS011;23841;48.524;1.342;2022-08-21T07:44:59;6.78;;;1.83;;
38034;SDS011;23841;48.524;1.342;2022-08-21T07:47:24;5.18;;;1.90;;
38034;SDS011;23841;48.524;1.342;2022-08-21T07:49:50;5.35;;;1.60;;
38034;SDS011;23841;48.524;1.342;2022-08-21T07:52:15;6.68;;;1.65;;
38034;SDS011;23841;48.524;1.342;2022-08-21T07:54:40;6.60;;;1.65;;
38034;SDS011;23841;48.524;1.342;2022-08-21T07:57:06;5.50;;;1.55;;
38034;SDS011;23841;48.524;1.342;2022-08-21T07:59:31;3.38;;;1.50;;
38034;SDS011;23841;48.524;1.342;2022-08-21T08:01:56;6.20;;;2.88;;
38034;SDS011;23841;48.524;1.342;2022-08-21T08:04:22;4.82;;;1.63;;
38034;SDS011;23841;48.524;1.342;2022-08-21T08:06:47;3.67;;;1.35;;
38034;SDS011;23841;48.524;1.342;2022-08-21T08:09:13;4.03;;;1.58;;
38034;SDS011;23841;48.524;1.342;2022-08-21T08:11:39;8.93;;;2.08;;
38034;SDS011;23841;48.524;1.342;2022-08-21T08:14:08;4.68;;;1.38;;
38034;SDS011;23841;48.524;1.342;2022-08-21T08:16:34;4.25;;;1.55;;
38034;SDS011;23841;48.524;1.342;2022-08-21T08:18:59;5.45;;;1.35;;
38034;SDS011;23841;48.524;1.342;2022-08-21T08:21:25;3.78;;;1.35;;
38034;SDS011;23841;48.524;1.342;2022-08-21T08:23:51;5.80;;;1.63;;
38034;SDS011;23841;48.524;1.342;2022-08-21T08:26:17;4.10;;;1.77;;
38034;SDS011;23841;48.524;1.342;2022-08-21T08:28:42;4.40;;;1.40;;
38034;SDS011;23841;48.524;1.342;2022-08-21T08:31:09;5.25;;;1.42;;
38034;SDS011;23841;48.524;1.342;2022-08-21T08:33:35;4.85;;;1.83;;
38034;SDS011;23841;48.524;1.342;2022-08-21T08:36:00;3.30;;;1.60;;
38034;SDS011;23841;48.524;1.342;2022-08-21T08:38:25;5.32;;;1.63;;
38034;SDS011;23841;48.524;1.342;2022-08-21T08:41:00;4.03;;;1.70;;
38034;SDS011;23841;48.524;1.342;2022-08-21T08:43:36;4.70;;;1.40;;
38034;SDS011;23841;48.524;1.342;2022-08-21T08:46:03;3.75;;;1.10;;
38034;SDS011;23841;48.524;1.342;2022-08-21T08:48:49;2.85;;;1.05;;
38034;SDS011;23841;48.524;1.342;2022-08-21T08:51:20;4.13;;;1.40;;
38034;SDS011;23841;48.524;1.342;2022-08-21T08:53:52;4.20;;;1.40;;
38034;SDS011;23841;48.524;1.342;2022-08-21T08:56:27;8.13;;;1.35;;
38034;SDS011;23841;48.524;1.342;2022-08-21T08:58:58;4.22;;;1.55;;
38034;SDS011;23841;48.524;1.342;2022-08-21T09:01:28;7.18;;;1.30;;
38034;SDS011;23841;48.524;1.342;2022-08-21T09:03:53;3.40;;;1.10;;
38034;SDS011;23841;48.524;1.342;2022-08-21T09:12:29;4.57;;;1.20;;
38034;SDS011;23841;48.524;1.342;2022-08-21T09:17:34;3.25;;;1.33;;
38034;SDS011;23841;48.524;1.342;2022-08-21T09:26:00;4.20;;;1.35;;
38034;SDS011;23841;48.524;1.342;2022-08-21T09:28:37;2.28;;;1.20;;
38034;SDS011;23841;48.524;1.342;2022-08-21T09:31:07;4.00;;;1.15;;
38034;SDS011;23841;48.524;1.342;2022-08-21T09:33:41;3.33;;;1.58;;
38034;SDS011;23841;48.524;1.342;2022-08-21T09:36:06;3.72;;;1.20;;
38034;SDS011;23841;48.524;1.342;2022-08-21T09:38:33;4.88;;;1.33;;
38034;SDS011;23841;48.524;1.342;2022-08-21T09:41:06;2.58;;;0.82;;
38034;SDS011;23841;48.524;1.342;2022-08-21T09:43:33;5.97;;;1.70;;
38034;SDS011;23841;48.524;1.342;2022-08-21T09:46:06;3.42;;;1.10;;
38034;SDS011;23841;48.524;1.342;2022-08-21T09:48:39;2.77;;;1.23;;
38034;SDS011;23841;48.524;1.342;2022-08-21T09:51:13;3.97;;;1.30;;
38034;SDS011;23841;48.524;1.342;2022-08-21T09:53:42;3.42;;;1.20;;
38034;SDS011;23841;48.524;1.342;2022-08-21T09:56:29;3.83;;;1.02;;
38034;SDS011;23841;48.524;1.342;2022-08-21T09:59:24;3.00;;;1.17;;
38034;SDS011;23841;48.524;1.342;2022-08-21T10:01:52;4.05;;;1.33;;
38034;SDS011;23841;48.524;1.342;2022-08-21T10:04:20;7.38;;;1.30;;
38034;SDS011;23841;48.524;1.342;2022-08-21T10:06:50;6.90;;;1.50;;
38034;SDS011;23841;48.524;1.342;2022-08-21T10:09:16;5.50;;;1.00;;
38034;SDS011;23841;48.524;1.342;2022-08-21T10:12:06;2.40;;;1.02;;
38034;SDS011;23841;48.524;1.342;2022-08-21T10:17:42;3.20;;;1.02;;
38034;SDS011;23841;48.524;1.342;2022-08-21T10:20:37;5.75;;;1.33;;
38034;SDS011;23841;48.524;1.342;2022-08-21T10:25:42;3.10;;;1.10;;
38034;SDS011;23841;48.524;1.342;2022-08-21T10:28:24;4.53;;;1.30;;
38034;SDS011;23841;48.524;1.342;2022-08-21T10:30:52;2.97;;;0.77;;
38034;SDS011;23841;48.524;1.342;2022-08-21T10:33:46;3.72;;;1.13;;
38034;SDS011;23841;48.524;1.342;2022-08-21T10:38:49;7.25;;;1.23;;
38034;SDS011;23841;48.524;1.342;2022-08-21T10:51:55;2.38;;;1.05;;
38034;SDS011;23841;48.524;1.342;2022-08-21T10:54:46;4.25;;;1.10;;
38034;SDS011;23841;48.524;1.342;2022-08-21T10:57:19;4.35;;;1.42;;
38034;SDS011;23841;48.524;1.342;2022-08-21T11:00:09;5.45;;;1.85;;
38034;SDS011;23841;48.524;1.342;2022-08-21T11:02:39;3.38;;;1.15;;
38034;SDS011;23841;48.524;1.342;2022-08-21T11:05:30;3.75;;;1.30;;
38034;SDS011;23841;48.524;1.342;2022-08-21T11:10:42;3.70;;;1.20;;
38034;SDS011;23841;48.524;1.342;2022-08-21T11:13:17;4.03;;;1.08;;
38034;SDS011;23841;48.524;1.342;2022-08-21T11:15:52;4.18;;;1.20;;
38034;SDS011;23841;48.524;1.342;2022-08-21T11:24:47;2.65;;;0.98;;
38034;SDS011;23841;48.524;1.342;2022-08-21T11:29:44;2.45;;;0.98;;
38034;SDS011;23841;48.524;1.342;2022-08-21T11:44:29;2.85;;;1.13;;
38034;SDS011;23841;48.524;1.342;2022-08-21T11:49:28;2.15;;;1.10;;
38034;SDS011;23841;48.524;1.342;2022-08-21T11:57:24;2.83;;;0.95;;
38034;SDS011;23841;48.524;1.342;2022-08-21T12:02:23;3.20;;;1.10;;
38034;SDS011;23841;48.524;1.342;2022-08-21T12:04:55;4.68;;;1.42;;
38034;SDS011;23841;48.524;1.342;2022-08-21T12:10:09;3.05;;;0.88;;
38034;SDS011;23841;48.524;1.342;2022-08-21T12:12:44;2.33;;;1.10;;
38034;SDS011;23841;48.524;1.342;2022-08-21T12:15:24;1.60;;;0.93;;
38034;SDS011;23841;48.524;1.342;2022-08-21T12:18:02;4.57;;;1.30;;
38034;SDS011;23841;48.524;1.342;2022-08-21T12:20:44;4.05;;;1.35;;
38034;SDS011;23841;48.524;1.342;2022-08-21T12:23:26;2.53;;;0.95;;
38034;SDS011;23841;48.524;1.342;2022-08-21T12:28:38;2.08;;;0.95;;
38034;SDS011;23841;48.524;1.342;2022-08-21T12:31:04;3.05;;;1.08;;
38034;SDS011;23841;48.524;1.342;2022-08-21T12:33:34;2.25;;;1.42;;
38034;SDS011;23841;48.524;1.342;2022-08-21T12:36:14;1.90;;;0.80;;
38034;SDS011;23841;48.524;1.342;2022-08-21T12:44:24;5.07;;;1.05;;
38034;SDS011;23841;48.524;1.342;2022-08-21T12:47:03;3.30;;;1.13;;
38034;SDS011;23841;48.524;1.342;2022-08-21T12:52:22;2.58;;;0.88;;
38034;SDS011;23841;48.524;1.342;2022-08-21T12:54:49;1.67;;;0.80;;
38034;SDS011;23841;48.524;1.342;2022-08-21T12:57:22;2.22;;;1.02;;
38034;SDS011;23841;48.524;1.342;2022-08-21T12:59:53;2.45;;;1.17;;
38034;SDS011;23841;48.524;1.342;2022-08-21T13:02:31;4.18;;;1.10;;
38034;SDS011;23841;48.524;1.342;2022-08-21T13:05:04;3.08;;;1.52;;
38034;SDS011;23841;48.524;1.342;2022-08-21T13:07:33;4.88;;;1.00;;
38034;SDS011;23841;48.524;1.342;2022-08-21T13:10:05;3.67;;;0.85;;
38034;SDS011;23841;48.524;1.342;2022-08-21T13:13:03;2.15;;;0.80;;
38034;SDS011;23841;48.524;1.342;2022-08-21T13:15:32;1.88;;;0.80;;
38034;SDS011;23841;48.524;1.342;2022-08-21T13:18:02;2.00;;;0.85;;
38034;SDS011;23841;48.524;1.342;2022-08-21T13:20:32;3.90;;;1.42;;
38034;SDS011;23841;48.524;1.342;2022-08-21T13:23:06;1.70;;;0.90;;
38034;SDS011;23841;48.524;1.342;2022-08-21T13:25:47;2.15;;;0.80;;
38034;SDS011;23841;48.524;1.342;2022-08-21T13:28:13;6.93;;;1.60;;
38034;SDS011;23841;48.524;1.342;2022-08-21T13:31:00;3.13;;;0.75;;
38034;SDS011;23841;48.524;1.342;2022-08-21T13:33:26;3.17;;;1.10;;
38034;SDS011;23841;48.524;1.342;2022-08-21T13:38:22;2.70;;;0.70;;
38034;SDS011;23841;48.524;1.342;2022-08-21T13:40:51;2.33;;;0.70;;
38034;SDS011;23841;48.524;1.342;2022-08-21T13:43:21;0.98;;;0.52;;
38034;SDS011;23841;48.524;1.342;2022-08-21T13:45:52;1.58;;;0.68;;
38034;SDS011;23841;48.524;1.342;2022-08-21T13:48:21;2.05;;;0.65;;
38034;SDS011;23841;48.524;1.342;2022-08-21T13:50:51;1.58;;;0.85;;
38034;SDS011;23841;48.524;1.342;2022-08-21T13:55:48;2.67;;;0.70;;
38034;SDS011;23841;48.524;1.342;2022-08-21T13:58:23;1.00;;;0.60;;
38034;SDS011;23841;48.524;1.342;2022-08-21T14:00:54;2.50;;;0.63;;
38034;SDS011;23841;48.524;1.342;2022-08-21T14:03:30;3.95;;;0.98;;
38034;SDS011;23841;48.524;1.342;2022-08-21T14:05:58;2.63;;;1.00;;
38034;SDS011;23841;48.524;1.342;2022-08-21T14:10:56;3.67;;;1.40;;
38034;SDS011;23841;48.524;1.342;2022-08-21T14:13:42;2.75;;;1.08;;
38034;SDS011;23841;48.524;1.342;2022-08-21T14:16:14;3.70;;;0.70;;
38034;SDS011;23841;48.524;1.342;2022-08-21T14:18:45;2.40;;;0.70;;
38034;SDS011;23841;48.524;1.342;2022-08-21T14:21:30;1.48;;;0.52;;
38034;SDS011;23841;48.524;1.342;2022-08-21T14:24:06;1.52;;;0.70;;
38034;SDS011;23841;48.524;1.342;2022-08-21T14:26:35;1.65;;;0.80;;
38034;SDS011;23841;48.524;1.342;2022-08-21T14:29:09;2.65;;;0.75;;
38034;SDS011;23841;48.524;1.342;2022-08-21T14:31:35;4.38;;;1.42;;
38034;SDS011;23841;48.524;1.342;2022-08-21T14:34:00;1.70;;;0.70;;
38034;SDS011;23841;48.524;1.342;2022-08-21T14:36:26;2.80;;;0.77;;
38034;SDS011;23841;48.524;1.342;2022-08-21T14:38:52;2.50;;;1.00;;
38034;SDS011;23841;48.524;1.342;2022-08-21T14:41:20;1.50;;;0.57;;
38034;SDS011;23841;48.524;1.342;2022-08-21T14:43:49;2.40;;;0.82;;
38034;SDS011;23841;48.524;1.342;2022-08-21T14:46:21;2.45;;;1.17;;
38034;SDS011;23841;48.524;1.342;2022-08-21T14:48:50;2.22;;;0.75;;
38034;SDS011;23841;48.524;1.342;2022-08-21T14:51:16;2.38;;;0.70;;
38034;SDS011;23841;48.524;1.342;2022-08-21T14:53:42;2.47;;;0.90;;
38034;SDS011;23841;48.524;1.342;2022-08-21T14:56:08;2.38;;;0.82;;
38034;SDS011;23841;48.524;1.342;2022-08-21T14:58:36;1.70;;;0.93;;
38034;SDS011;23841;48.524;1.342;2022-08-21T15:01:04;3.10;;;0.95;;
38034;SDS011;23841;48.524;1.342;2022-08-21T15:03:31;1.38;;;0.93;;
38034;SDS011;23841;48.524;1.342;2022-08-21T15:05:58;1.48;;;0.80;;
38034;SDS011;23841;48.524;1.342;2022-08-21T15:08:26;3.15;;;0.85;;
38034;SDS011;23841;48.524;1.342;2022-08-21T15:10:52;2.35;;;0.55;;
38034;SDS011;23841;48.524;1.342;2022-08-21T15:13:18;3.10;;;1.00;;
38034;SDS011;23841;48.524;1.342;2022-08-21T15:15:45;2.45;;;1.00;;
38034;SDS011;23841;48.524;1.342;2022-08-21T15:18:13;2.33;;;1.08;;
38034;SDS011;23841;48.524;1.342;2022-08-21T15:20:41;2.33;;;1.00;;
38034;SDS011;23841;48.524;1.342;2022-08-21T15:23:09;2.03;;;0.90;;
38034;SDS011;23841;48.524;1.342;2022-08-21T15:25:35;1.55;;;0.60;;
38034;SDS011;23841;48.524;1.342;2022-08-21T15:28:02;3.17;;;0.77;;
38034;SDS011;23841;48.524;1.342;2022-08-21T15:30:29;2.88;;;0.85;;
38034;SDS011;23841;48.524;1.342;2022-08-21T15:32:55;4.25;;;1.17;;
38034;SDS011;23841;48.524;1.342;2022-08-21T15:35:21;3.60;;;0.90;;
38034;SDS011;23841;48.524;1.342;2022-08-21T15:37:47;3.42;;;0.95;;
38034;SDS011;23841;48.524;1.342;2022-08-21T15:40:12;3.05;;;0.80;;
38034;SDS011;23841;48.524;1.342;2022-08-21T15:42:40;2.47;;;1.10;;
38034;SDS011;23841;48.524;1.342;2022-08-21T15:45:06;3.10;;;0.90;;
38034;SDS011;23841;48.524;1.342;2022-08-21T15:47:34;3.25;;;1.13;;
38034;SDS011;23841;48.524;1.342;2022-08-21T15:50:03;4.90;;;1.83;;
38034;SDS011;23841;48.524;1.342;2022-08-21T15:52:32;3.22;;;1.17;;
38034;SDS011;23841;48.524;1.342;2022-08-21T15:54:58;1.42;;;0.70;;
38034;SDS011;23841;48.524;1.342;2022-08-21T15:57:24;2.85;;;1.02;;
38034;SDS011;23841;48.524;1.342;2022-08-21T15:59:51;3.00;;;1.10;;
38034;SDS011;23841;48.524;1.342;2022-08-21T16:02:25;3.25;;;1.02;;
38034;SDS011;23841;48.524;1.342;2022-08-21T16:04:53;4.20;;;1.20;;
38034;SDS011;23841;48.524;1.342;2022-08-21T16:07:19;3.78;;;1.33;;
38034;SDS011;23841;48.524;1.342;2022-08-21T16:09:45;2.67;;;1.17;;
38034;SDS011;23841;48.524;1.342;2022-08-21T16:12:14;5.43;;;1.25;;
38034;SDS011;23841;48.524;1.342;2022-08-21T16:14:46;2.85;;;1.02;;
38034;SDS011;23841;48.524;1.342;2022-08-21T16:17:12;2.10;;;0.90;;
38034;SDS011;23841;48.524;1.342;2022-08-21T16:19:37;2.65;;;0.80;;
38034;SDS011;23841;48.524;1.342;2022-08-21T16:22:04;4.50;;;1.30;;
38034;SDS011;23841;48.524;1.342;2022-08-21T16:24:29;3.03;;;0.90;;
38034;SDS011;23841;48.524;1.342;2022-08-21T16:26:55;3.53;;;1.10;;
38034;SDS011;23841;48.524;1.342;2022-08-21T16:29:21;3.22;;;1.17;;
38034;SDS011;23841;48.524;1.342;2022-08-21T16:31:47;2.97;;;0.95;;